createdAt,value
2017-03-28T00:00:46.542Z,0.00
2017-03-28T00:01:41.526Z,0.00
2017-03-28T00:02:41.674Z,0.00
2017-03-28T00:03:36.688Z,0.00
2017-03-28T00:04:31.709Z,0.00
2017-03-28T00:05:31.707Z,0.00
2017-03-28T00:06:26.789Z,0.00
2017-03-28T00:07:22.191Z,0.00
2017-03-28T00:08:22.264Z,0.00
2017-03-28T00:09:16.775Z,0.00
2017-03-28T00:10:11.892Z,0.00
2017-03-28T00:11:12.912Z,0.00
2017-03-28T00:12:12.885Z,0.00
2017-03-28T00:13:12.894Z,0.00
2017-03-28T00:14:12.936Z,0.00
2017-03-28T00:15:13.970Z,0.00
2017-03-28T00:16:14.964Z,0.00
2017-03-28T00:17:08.946Z,0.00
2017-03-28T00:18:03.045Z,0.00
2017-03-28T00:18:52.139Z,0.00
2017-03-28T00:19:41.233Z,0.00
2017-03-28T00:20:30.155Z,0.00
2017-03-28T00:21:31.200Z,0.00
2017-03-28T00:22:31.216Z,0.00
2017-03-28T00:23:26.418Z,0.00
2017-03-28T00:24:26.271Z,0.00
2017-03-28T00:25:20.437Z,0.00
2017-03-28T00:26:15.338Z,0.00
2017-03-28T00:27:04.345Z,0.00
2017-03-28T00:27:58.446Z,0.00
2017-03-28T00:28:52.432Z,0.00
2017-03-28T00:29:46.410Z,0.00
2017-03-28T00:30:35.445Z,0.00
2017-03-28T00:31:29.474Z,0.00
2017-03-28T00:32:29.512Z,0.00
2017-03-28T00:33:17.607Z,0.00
2017-03-28T00:34:12.699Z,0.00
2017-03-28T00:35:01.652Z,0.00
2017-03-28T00:35:55.818Z,0.00
2017-03-28T00:36:49.733Z,0.00
2017-03-28T00:37:38.762Z,0.00
2017-03-28T00:38:27.867Z,0.00
2017-03-28T00:39:21.925Z,0.00
2017-03-28T00:40:16.834Z,0.00
2017-03-28T00:41:11.885Z,0.00
2017-03-28T00:42:11.970Z,0.00
2017-03-28T00:43:06.943Z,0.00
2017-03-28T00:44:01.982Z,0.00
2017-03-28T00:45:02.012Z,0.00
2017-03-28T00:45:57.003Z,0.00
2017-03-28T00:46:57.039Z,0.00
2017-03-28T00:47:57.110Z,0.00
2017-03-28T00:48:57.160Z,0.00
2017-03-28T00:49:51.169Z,0.00
2017-03-28T00:50:51.129Z,0.00
2017-03-28T00:51:46.156Z,0.00
2017-03-28T00:52:41.669Z,0.00
2017-03-28T00:53:42.258Z,0.00
2017-03-28T00:54:42.297Z,0.00
2017-03-28T00:55:42.332Z,0.00
2017-03-28T00:56:37.321Z,0.00
2017-03-28T00:57:32.054Z,0.00
2017-03-28T00:58:31.351Z,0.00
2017-03-28T00:59:26.404Z,0.00
2017-03-28T01:00:32.457Z,0.00
2017-03-28T01:01:27.448Z,0.00
2017-03-28T01:02:21.459Z,0.00
2017-03-28T01:03:22.600Z,0.00
2017-03-28T01:04:17.606Z,0.00
2017-03-28T01:05:11.629Z,0.00
2017-03-28T01:06:12.650Z,0.00
2017-03-28T01:07:13.100Z,0.00
2017-03-28T01:08:12.665Z,0.00
2017-03-28T01:09:12.769Z,0.00
2017-03-28T01:10:13.916Z,0.00
2017-03-28T01:11:14.759Z,0.00
2017-03-28T01:12:08.754Z,0.00
2017-03-28T01:13:08.856Z,0.00
2017-03-28T01:14:03.909Z,0.00
2017-03-28T01:14:58.883Z,0.00
2017-03-28T01:15:58.891Z,0.00
2017-03-28T01:16:53.957Z,0.00
2017-03-28T01:17:49.118Z,0.00
2017-03-28T01:18:48.996Z,0.00
2017-03-28T01:19:44.042Z,0.00
2017-03-28T01:20:39.032Z,0.00
2017-03-28T01:21:40.077Z,0.00
2017-03-28T01:22:40.090Z,0.00
2017-03-28T01:23:40.123Z,0.00
2017-03-28T01:24:35.320Z,0.00
2017-03-28T01:25:35.138Z,0.00
2017-03-28T01:26:35.219Z,0.00
2017-03-28T01:27:29.284Z,0.00
2017-03-28T01:28:29.247Z,0.00
2017-03-28T01:29:24.293Z,0.00
2017-03-28T01:30:24.292Z,0.00
2017-03-28T01:31:18.355Z,0.00
2017-03-28T01:32:18.355Z,0.00
2017-03-28T01:33:13.411Z,0.00
2017-03-28T01:34:08.421Z,0.00
2017-03-28T01:35:09.456Z,0.00
2017-03-28T01:36:09.506Z,0.00
2017-03-28T01:37:04.451Z,0.00
2017-03-28T01:38:04.588Z,0.00
2017-03-28T01:39:04.561Z,0.00
2017-03-28T01:40:10.539Z,0.00
2017-03-28T01:41:05.538Z,0.00
2017-03-28T01:42:05.635Z,0.00
2017-03-28T01:43:00.660Z,0.00
2017-03-28T01:43:55.706Z,0.00
2017-03-28T01:44:56.883Z,0.00
2017-03-28T01:45:56.684Z,0.00
2017-03-28T01:46:56.753Z,0.00
2017-03-28T01:47:56.849Z,0.00
2017-03-28T01:48:57.865Z,0.00
2017-03-28T01:49:58.846Z,0.00
2017-03-28T01:50:52.883Z,0.00
2017-03-28T01:51:52.930Z,0.00
2017-03-28T01:52:47.950Z,0.00
2017-03-28T01:53:43.055Z,0.00
2017-03-28T01:54:43.069Z,0.00
2017-03-28T01:55:38.012Z,0.00
2017-03-28T01:56:33.035Z,0.00
2017-03-28T01:57:33.022Z,0.00
2017-03-28T01:58:28.121Z,0.00
2017-03-28T01:59:23.211Z,0.00
2017-03-28T02:00:24.236Z,0.00
2017-03-28T02:01:24.335Z,0.00
2017-03-28T02:02:24.245Z,0.00
2017-03-28T02:03:19.268Z,0.00
2017-03-28T02:04:19.294Z,0.00
2017-03-28T02:05:19.364Z,0.00
2017-03-28T02:06:13.417Z,0.00
2017-03-28T02:07:14.351Z,0.00
2017-03-28T02:08:14.396Z,0.00
2017-03-28T02:09:14.386Z,0.00
2017-03-28T02:10:14.536Z,0.00
2017-03-28T02:11:20.438Z,0.00
2017-03-28T02:12:15.555Z,0.00
2017-03-28T02:13:15.528Z,0.00
2017-03-28T02:14:09.564Z,0.00
2017-03-28T02:15:09.563Z,0.00
2017-03-28T02:16:04.593Z,0.00
2017-03-28T02:17:04.616Z,0.00
2017-03-28T02:18:04.699Z,0.00
2017-03-28T02:19:04.754Z,0.00
2017-03-28T02:19:58.782Z,0.00
2017-03-28T02:20:58.740Z,0.00
2017-03-28T02:21:53.800Z,0.00
2017-03-28T02:22:48.751Z,0.00
2017-03-28T02:23:48.854Z,0.00
2017-03-28T02:24:43.867Z,0.00
2017-03-28T02:25:38.874Z,0.00
2017-03-28T02:26:38.920Z,0.00
2017-03-28T02:27:33.907Z,0.00
2017-03-28T02:28:33.892Z,0.00
2017-03-28T02:29:33.977Z,0.00
2017-03-28T02:30:34.606Z,0.00
2017-03-28T02:31:28.054Z,0.00
2017-03-28T02:32:28.061Z,0.00
2017-03-28T02:33:23.089Z,0.00
2017-03-28T02:34:23.186Z,0.00
2017-03-28T02:35:23.166Z,0.00
2017-03-28T02:36:23.133Z,0.00
2017-03-28T02:37:17.218Z,0.00
2017-03-28T02:38:18.233Z,0.00
2017-03-28T02:39:18.213Z,0.00
2017-03-28T02:40:13.264Z,0.00
2017-03-28T02:41:13.315Z,0.00
2017-03-28T02:42:07.447Z,0.00
2017-03-28T02:43:07.343Z,0.00
2017-03-28T02:44:02.374Z,0.00
2017-03-28T02:44:57.441Z,0.00
2017-03-28T02:45:57.416Z,0.00
2017-03-28T02:46:52.480Z,0.00
2017-03-28T02:47:47.610Z,0.00
2017-03-28T02:48:47.698Z,0.00
2017-03-28T02:49:42.566Z,0.00
2017-03-28T02:50:42.667Z,0.00
2017-03-28T02:51:42.620Z,0.00
2017-03-28T02:52:42.716Z,0.00
2017-03-28T02:53:36.664Z,0.00
2017-03-28T02:54:36.658Z,0.00
2017-03-28T02:55:31.719Z,0.00
2017-03-28T02:56:31.763Z,0.00
2017-03-28T02:57:31.723Z,0.00
2017-03-28T02:58:31.859Z,0.00
2017-03-28T02:59:25.837Z,0.00
2017-03-28T03:00:25.859Z,0.00
2017-03-28T03:01:20.837Z,0.00
2017-03-28T03:02:15.932Z,0.00
2017-03-28T03:03:16.950Z,0.00
2017-03-28T03:04:16.979Z,0.00
2017-03-28T03:05:16.992Z,0.00
2017-03-28T03:06:12.004Z,0.00
2017-03-28T03:07:06.044Z,0.00
2017-03-28T03:08:06.072Z,0.00
2017-03-28T03:09:01.092Z,0.00
2017-03-28T03:10:01.271Z,0.00
2017-03-28T03:10:55.145Z,0.00
2017-03-28T03:11:55.184Z,0.00
2017-03-28T03:12:50.258Z,0.00
2017-03-28T03:13:45.325Z,0.00
2017-03-28T03:14:45.247Z,0.00
2017-03-28T03:15:40.359Z,0.00
2017-03-28T03:16:35.321Z,0.00
2017-03-28T03:17:36.351Z,0.00
2017-03-28T03:18:36.353Z,0.00
2017-03-28T03:19:36.441Z,0.00
2017-03-28T03:20:31.417Z,0.00
2017-03-28T03:21:25.453Z,0.00
2017-03-28T03:22:26.515Z,0.00
2017-03-28T03:23:26.976Z,0.00
2017-03-28T03:24:26.574Z,0.00
2017-03-28T03:25:21.542Z,0.00
2017-03-28T03:26:15.571Z,0.00
2017-03-28T03:27:15.667Z,0.00
2017-03-28T03:28:10.607Z,0.00
2017-03-28T03:29:10.737Z,0.00
2017-03-28T03:30:10.692Z,0.00
2017-03-28T03:31:10.732Z,0.00
2017-03-28T03:32:10.717Z,0.00
2017-03-28T03:33:10.824Z,0.00
2017-03-28T03:34:04.807Z,0.00
2017-03-28T03:35:04.854Z,0.00
2017-03-28T03:35:59.826Z,0.00
2017-03-28T03:36:54.919Z,0.00
2017-03-28T03:37:55.977Z,0.00
2017-03-28T03:38:55.955Z,0.00
2017-03-28T03:39:55.918Z,0.00
2017-03-28T03:40:51.014Z,0.00
2017-03-28T03:41:45.067Z,0.00
2017-03-28T03:42:45.068Z,0.00
2017-03-28T03:43:40.119Z,0.00
2017-03-28T03:44:40.159Z,0.00
2017-03-28T03:45:34.118Z,0.00
2017-03-28T03:46:34.176Z,0.00
2017-03-28T03:47:29.215Z,0.00
2017-03-28T03:48:24.269Z,0.00
2017-03-28T03:49:24.231Z,0.00
2017-03-28T03:50:19.347Z,0.00
2017-03-28T03:51:14.747Z,0.00
2017-03-28T03:52:15.277Z,0.00
2017-03-28T03:53:15.278Z,0.00
2017-03-28T03:54:15.342Z,0.00
2017-03-28T03:55:10.467Z,0.00
2017-03-28T03:56:04.551Z,0.00
2017-03-28T03:57:04.496Z,0.00
2017-03-28T03:57:59.593Z,0.00
2017-03-28T03:58:59.556Z,0.00
2017-03-28T03:59:53.644Z,0.00
2017-03-28T04:00:54.590Z,0.00
2017-03-28T04:01:55.661Z,0.00
2017-03-28T04:02:50.660Z,0.00
2017-03-28T04:03:44.667Z,0.00
2017-03-28T04:04:45.711Z,0.00
2017-03-28T04:05:45.742Z,0.00
2017-03-28T04:06:45.736Z,0.00
2017-03-28T04:07:40.873Z,0.00
2017-03-28T04:08:34.848Z,0.00
2017-03-28T04:09:34.836Z,0.00
2017-03-28T04:10:29.895Z,0.00
2017-03-28T04:11:35.930Z,0.00
2017-03-28T04:12:30.939Z,0.00
2017-03-28T04:13:24.972Z,0.00
2017-03-28T04:14:25.973Z,0.00
2017-03-28T04:15:21.061Z,0.00
2017-03-28T04:16:15.060Z,0.00
2017-03-28T04:17:15.074Z,0.00
2017-03-28T04:18:10.129Z,0.00
2017-03-28T04:19:10.192Z,0.00
2017-03-28T04:20:04.901Z,0.00
2017-03-28T04:21:04.906Z,0.00
2017-03-28T04:21:59.189Z,0.00
2017-03-28T04:22:54.241Z,0.00
2017-03-28T04:23:54.268Z,0.00
2017-03-28T04:24:49.264Z,0.00
2017-03-28T04:25:44.855Z,0.00
2017-03-28T04:26:44.280Z,0.00
2017-03-28T04:27:39.403Z,0.00
2017-03-28T04:28:34.488Z,0.00
2017-03-28T04:29:35.432Z,0.00
2017-03-28T04:30:35.419Z,0.00
2017-03-28T04:31:35.498Z,0.00
2017-03-28T04:32:31.168Z,0.00
2017-03-28T04:33:24.573Z,0.00
2017-03-28T04:34:25.607Z,0.00
2017-03-28T04:35:25.665Z,0.00
2017-03-28T04:36:25.839Z,0.00
2017-03-28T04:37:25.650Z,0.00
2017-03-28T04:38:31.650Z,0.00
2017-03-28T04:39:26.764Z,0.00
2017-03-28T04:40:26.807Z,0.00
2017-03-28T04:41:20.787Z,0.00
2017-03-28T04:42:21.347Z,0.00
2017-03-28T04:43:16.497Z,0.00
2017-03-28T04:44:15.922Z,0.00
2017-03-28T04:45:15.871Z,0.00
2017-03-28T04:46:15.945Z,0.00
2017-03-28T04:47:09.996Z,0.00
2017-03-28T04:48:10.033Z,0.00
2017-03-28T04:49:04.998Z,0.00
2017-03-28T04:50:00.030Z,0.00
2017-03-28T04:50:54.626Z,0.00
2017-03-28T04:51:54.018Z,0.00
2017-03-28T04:52:49.065Z,0.00
2017-03-28T04:53:44.391Z,0.00
2017-03-28T04:54:44.151Z,0.00
2017-03-28T04:55:39.193Z,0.00
2017-03-28T04:56:34.283Z,0.00
2017-03-28T04:57:34.204Z,0.00
2017-03-28T04:58:29.314Z,0.00
2017-03-28T04:59:29.319Z,0.00
2017-03-28T05:00:30.345Z,0.00
2017-03-28T05:01:31.355Z,0.00
2017-03-28T05:02:25.698Z,0.00
2017-03-28T05:03:25.994Z,0.00
2017-03-28T05:04:20.444Z,0.00
2017-03-28T05:05:15.549Z,0.00
2017-03-28T05:06:09.531Z,0.00
2017-03-28T05:07:09.543Z,0.00
2017-03-28T05:08:04.598Z,0.00
2017-03-28T05:08:59.583Z,0.00
2017-03-28T05:09:59.542Z,0.00
2017-03-28T05:10:59.759Z,0.00
2017-03-28T05:11:59.656Z,0.00
2017-03-28T05:12:54.698Z,0.00
2017-03-28T05:13:49.753Z,0.01
2017-03-28T05:14:43.745Z,0.01
2017-03-28T05:15:44.821Z,0.01
2017-03-28T05:16:39.867Z,0.01
2017-03-28T05:17:39.818Z,0.01
2017-03-28T05:18:39.876Z,0.01
2017-03-28T05:19:39.848Z,0.01
2017-03-28T05:20:39.912Z,0.01
2017-03-28T05:21:39.933Z,0.01
2017-03-28T05:22:39.960Z,0.01
2017-03-28T05:23:39.944Z,0.01
2017-03-28T05:24:45.960Z,0.01
2017-03-28T05:25:41.021Z,0.02
2017-03-28T05:26:41.069Z,0.02
2017-03-28T05:27:41.226Z,0.02
2017-03-28T05:28:41.096Z,0.02
2017-03-28T05:29:41.305Z,0.02
2017-03-28T05:30:35.132Z,0.02
2017-03-28T05:31:35.182Z,0.02
2017-03-28T05:32:30.589Z,0.02
2017-03-28T05:33:25.250Z,0.02
2017-03-28T05:34:25.339Z,0.02
2017-03-28T05:35:25.343Z,0.02
2017-03-28T05:36:19.365Z,0.02
2017-03-28T05:37:19.350Z,0.03
2017-03-28T05:38:14.460Z,0.03
2017-03-28T05:39:14.419Z,0.03
2017-03-28T05:40:14.463Z,0.03
2017-03-28T05:41:14.567Z,0.03
2017-03-28T05:42:14.567Z,0.03
2017-03-28T05:43:14.551Z,0.03
2017-03-28T05:44:08.533Z,0.03
2017-03-28T05:45:08.831Z,0.03
2017-03-28T05:46:04.530Z,0.03
2017-03-28T05:47:04.300Z,0.04
2017-03-28T05:48:05.510Z,0.04
2017-03-28T05:49:06.503Z,0.04
2017-03-28T05:50:07.161Z,0.04
2017-03-28T05:51:00.891Z,0.04
2017-03-28T05:52:00.826Z,0.04
2017-03-28T05:52:55.887Z,0.04
2017-03-28T05:53:50.827Z,0.04
2017-03-28T05:54:44.921Z,0.05
2017-03-28T05:55:44.923Z,0.05
2017-03-28T05:56:40.612Z,0.05
2017-03-28T05:57:35.342Z,0.06
2017-03-28T05:58:35.151Z,0.06
2017-03-28T05:59:30.022Z,0.06
2017-03-28T06:00:25.148Z,0.06
2017-03-28T06:01:19.492Z,0.06
2017-03-28T06:02:20.797Z,0.07
2017-03-28T06:03:15.142Z,0.07
2017-03-28T06:04:15.139Z,0.07
2017-03-28T06:05:15.206Z,0.07
2017-03-28T06:06:15.321Z,0.07
2017-03-28T06:07:15.229Z,0.07
2017-03-28T06:08:15.789Z,0.07
2017-03-28T06:09:21.315Z,0.08
2017-03-28T06:10:16.295Z,0.08
2017-03-28T06:11:16.701Z,0.08
2017-03-28T06:12:16.365Z,0.08
2017-03-28T06:13:11.267Z,0.09
2017-03-28T06:14:11.403Z,0.09
2017-03-28T06:15:05.643Z,0.09
2017-03-28T06:16:00.606Z,0.09
2017-03-28T06:16:54.561Z,0.09
2017-03-28T06:17:54.612Z,0.10
2017-03-28T06:18:49.670Z,0.10
2017-03-28T06:19:50.024Z,0.10
2017-03-28T06:20:49.729Z,0.10
2017-03-28T06:21:49.824Z,0.11
2017-03-28T06:22:44.444Z,0.11
2017-03-28T06:23:45.035Z,0.11
2017-03-28T06:24:45.828Z,0.11
2017-03-28T06:25:46.052Z,0.11
2017-03-28T06:26:40.901Z,0.12
2017-03-28T06:27:35.944Z,0.12
2017-03-28T06:28:35.937Z,0.12
2017-03-28T06:29:31.065Z,0.12
2017-03-28T06:30:26.109Z,0.12
2017-03-28T06:31:20.344Z,0.13
2017-03-28T06:32:20.102Z,0.13
2017-03-28T06:33:15.817Z,0.13
2017-03-28T06:34:15.800Z,0.14
2017-03-28T06:35:15.673Z,0.14
2017-03-28T06:36:15.862Z,0.14
2017-03-28T06:37:09.318Z,0.15
2017-03-28T06:38:09.396Z,0.15
2017-03-28T06:39:04.429Z,0.15
2017-03-28T06:39:59.403Z,0.15
2017-03-28T06:40:53.463Z,0.15
2017-03-28T06:41:53.442Z,0.15
2017-03-28T06:42:49.512Z,0.15
2017-03-28T06:43:42.576Z,0.16
2017-03-28T06:44:42.695Z,0.16
2017-03-28T06:45:36.684Z,0.16
2017-03-28T06:46:30.745Z,0.16
2017-03-28T06:47:20.517Z,0.17
2017-03-28T06:48:13.774Z,0.17
2017-03-28T06:49:08.871Z,0.17
2017-03-28T06:50:03.817Z,0.17
2017-03-28T06:50:57.954Z,0.18
2017-03-28T06:51:52.225Z,0.18
2017-03-28T06:52:47.004Z,0.18
2017-03-28T06:53:41.291Z,0.18
2017-03-28T06:54:35.036Z,0.19
2017-03-28T06:55:29.152Z,0.19
2017-03-28T06:56:23.390Z,0.19
2017-03-28T06:57:17.238Z,0.19
2017-03-28T06:58:17.385Z,0.20
2017-03-28T06:59:11.261Z,0.20
2017-03-28T07:00:11.443Z,0.20
2017-03-28T07:01:05.325Z,0.20
2017-03-28T07:01:54.907Z,0.21
2017-03-28T07:02:54.900Z,0.21
2017-03-28T07:03:42.676Z,0.21
2017-03-28T07:04:37.567Z,0.21
2017-03-28T07:05:43.520Z,0.20
2017-03-28T07:06:38.570Z,0.20
2017-03-28T07:07:27.639Z,0.20
2017-03-28T07:08:21.715Z,0.21
2017-03-28T07:09:15.696Z,0.22
2017-03-28T07:10:09.824Z,0.22
2017-03-28T07:11:09.844Z,0.23
2017-03-28T07:12:04.975Z,0.24
2017-03-28T07:13:04.909Z,0.24
2017-03-28T07:14:04.949Z,0.24
2017-03-28T07:14:59.979Z,0.24
2017-03-28T07:15:59.993Z,0.24
2017-03-28T07:16:55.126Z,0.25
2017-03-28T07:17:44.281Z,0.25
2017-03-28T07:18:33.164Z,0.25
2017-03-28T07:19:21.255Z,0.25
2017-03-28T07:20:15.245Z,0.25
2017-03-28T07:21:09.324Z,0.26
2017-03-28T07:22:03.390Z,0.26
2017-03-28T07:22:58.076Z,0.27
2017-03-28T07:23:58.318Z,0.28
2017-03-28T07:24:51.585Z,0.28
2017-03-28T07:25:46.514Z,0.28
2017-03-28T07:26:36.163Z,0.28
2017-03-28T07:27:24.618Z,0.28
2017-03-28T07:28:12.718Z,0.28
2017-03-28T07:29:01.536Z,0.27
2017-03-28T07:29:54.884Z,0.29
2017-03-28T07:30:43.859Z,0.30
2017-03-28T07:31:37.864Z,0.31
2017-03-28T07:32:37.961Z,0.31
2017-03-28T07:33:25.978Z,0.31
2017-03-28T07:34:20.057Z,0.29
2017-03-28T07:35:20.048Z,0.27
2017-03-28T07:36:09.136Z,0.27
2017-03-28T07:37:09.236Z,0.27
2017-03-28T07:38:04.478Z,0.29
2017-03-28T07:38:59.265Z,0.30
2017-03-28T07:39:47.332Z,0.31
2017-03-28T07:40:35.312Z,0.32
2017-03-28T07:41:29.379Z,0.32
2017-03-28T07:42:29.596Z,0.32
2017-03-28T07:43:19.067Z,0.33
2017-03-28T07:44:13.754Z,0.33
2017-03-28T07:45:08.552Z,0.34
2017-03-28T07:46:04.057Z,0.35
2017-03-28T07:46:57.683Z,0.36
2017-03-28T07:47:51.768Z,0.35
2017-03-28T07:48:45.784Z,0.36
2017-03-28T07:49:40.781Z,0.35
2017-03-28T07:50:40.893Z,0.35
2017-03-28T07:51:36.625Z,0.34
2017-03-28T07:52:30.971Z,0.34
2017-03-28T07:53:32.026Z,0.34
2017-03-28T07:54:32.050Z,0.36
2017-03-28T07:55:26.259Z,0.37
2017-03-28T07:56:21.184Z,0.37
2017-03-28T07:57:16.238Z,0.38
2017-03-28T07:58:05.250Z,0.38
2017-03-28T07:58:54.363Z,0.39
2017-03-28T07:59:48.348Z,0.39
2017-03-28T08:00:42.380Z,0.39
2017-03-28T08:01:31.514Z,0.39
2017-03-28T08:02:25.550Z,0.40
2017-03-28T08:03:25.608Z,0.39
2017-03-28T08:04:13.561Z,0.39
2017-03-28T08:05:13.652Z,0.39
2017-03-28T08:06:01.719Z,0.39
2017-03-28T08:06:50.758Z,0.40
2017-03-28T08:07:50.931Z,0.41
2017-03-28T08:08:39.659Z,0.42
2017-03-28T08:09:28.223Z,0.42
2017-03-28T08:10:22.939Z,0.43
2017-03-28T08:11:17.020Z,0.44
2017-03-28T08:12:05.088Z,0.44
2017-03-28T08:13:05.248Z,0.44
2017-03-28T08:13:53.242Z,0.44
2017-03-28T08:14:47.695Z,0.44
2017-03-28T08:15:36.274Z,0.44
2017-03-28T08:16:31.387Z,0.44
2017-03-28T08:17:25.473Z,0.45
2017-03-28T08:18:20.431Z,0.45
2017-03-28T08:19:14.666Z,0.45
2017-03-28T08:20:02.587Z,0.45
2017-03-28T08:21:02.661Z,0.45
2017-03-28T08:21:57.638Z,0.45
2017-03-28T08:22:51.754Z,0.45
2017-03-28T08:23:45.781Z,0.45
2017-03-28T08:24:34.767Z,0.46
2017-03-28T08:25:35.181Z,0.46
2017-03-28T08:26:34.976Z,0.47
2017-03-28T08:27:28.979Z,0.47
2017-03-28T08:28:23.968Z,0.47
2017-03-28T08:29:18.612Z,0.44
2017-03-28T08:30:06.050Z,0.43
2017-03-28T08:30:55.224Z,0.42
2017-03-28T08:31:49.154Z,0.42
2017-03-28T08:32:44.976Z,0.44
2017-03-28T08:33:33.397Z,0.45
2017-03-28T08:34:33.497Z,0.47
2017-03-28T08:35:33.360Z,0.49
2017-03-28T08:36:22.775Z,0.51
2017-03-28T08:37:17.297Z,0.51
2017-03-28T08:38:05.656Z,0.52
2017-03-28T08:39:00.646Z,0.52
2017-03-28T08:39:54.804Z,0.51
2017-03-28T08:40:49.716Z,0.51
2017-03-28T08:41:50.761Z,0.52
2017-03-28T08:42:50.781Z,0.52
2017-03-28T08:43:45.220Z,0.52
2017-03-28T08:44:38.890Z,0.52
2017-03-28T08:45:27.948Z,0.52
2017-03-28T08:46:23.039Z,0.52
2017-03-28T08:47:23.493Z,0.53
2017-03-28T08:48:18.765Z,0.53
2017-03-28T08:49:12.421Z,0.54
2017-03-28T08:50:06.870Z,0.54
2017-03-28T08:51:01.397Z,0.54
2017-03-28T08:51:55.418Z,0.54
2017-03-28T08:52:55.426Z,0.54
2017-03-28T08:53:50.884Z,0.54
2017-03-28T08:54:45.562Z,0.54
2017-03-28T08:55:34.529Z,0.55
2017-03-28T08:56:28.644Z,0.56
2017-03-28T08:57:23.622Z,0.57
2017-03-28T08:58:19.200Z,0.58
2017-03-28T08:59:19.328Z,0.57
2017-03-28T09:00:07.963Z,0.58
2017-03-28T09:00:56.896Z,0.57
2017-03-28T09:01:51.539Z,0.57
2017-03-28T09:02:45.986Z,0.58
2017-03-28T09:03:40.625Z,0.58
2017-03-28T09:04:35.099Z,0.58
2017-03-28T09:05:29.307Z,0.58
2017-03-28T09:06:17.205Z,0.58
2017-03-28T09:07:06.265Z,0.58
2017-03-28T09:08:01.359Z,0.17
2017-03-28T09:08:56.664Z,0.57
2017-03-28T09:09:44.504Z,0.17
2017-03-28T09:10:38.540Z,0.56
2017-03-28T09:11:32.624Z,0.54
2017-03-28T09:12:22.278Z,0.55
2017-03-28T09:13:09.787Z,0.56
2017-03-28T09:13:58.939Z,0.57
2017-03-28T09:14:58.912Z,0.59
2017-03-28T09:15:58.848Z,0.17
2017-03-28T09:16:53.733Z,0.17
2017-03-28T09:17:46.983Z,0.60
2017-03-28T09:18:35.046Z,0.60
2017-03-28T09:19:29.354Z,0.60
2017-03-28T09:20:24.989Z,0.17
2017-03-28T09:21:24.837Z,0.17
2017-03-28T09:22:18.227Z,0.61
2017-03-28T09:23:12.388Z,0.19
2017-03-28T09:24:06.387Z,0.60
2017-03-28T09:25:01.385Z,0.61
2017-03-28T09:25:57.036Z,0.61
2017-03-28T09:26:50.597Z,0.17
2017-03-28T09:27:44.516Z,0.17
2017-03-28T09:28:38.665Z,0.18
2017-03-28T09:29:27.403Z,0.61
2017-03-28T09:30:21.776Z,0.62
2017-03-28T09:31:10.828Z,0.62
2017-03-28T09:32:10.838Z,0.17
2017-03-28T09:33:04.925Z,0.17
2017-03-28T09:33:59.233Z,0.17
2017-03-28T09:34:47.045Z,0.63
2017-03-28T09:35:41.154Z,0.17
2017-03-28T09:36:30.145Z,0.17
2017-03-28T09:37:19.209Z,0.54
2017-03-28T09:38:19.301Z,0.17
2017-03-28T09:39:13.323Z,0.17
2017-03-28T09:40:08.670Z,0.63
2017-03-28T09:41:08.480Z,0.18
2017-03-28T09:42:03.538Z,0.64
2017-03-28T09:43:03.614Z,0.63
2017-03-28T09:43:59.428Z,0.17
2017-03-28T09:44:46.760Z,0.64
2017-03-28T09:45:35.877Z,0.16
2017-03-28T09:46:30.793Z,0.17
2017-03-28T09:47:23.817Z,0.17
2017-03-28T09:48:23.939Z,0.17
2017-03-28T09:49:18.958Z,0.63
2017-03-28T09:50:13.040Z,0.62
2017-03-28T09:51:02.631Z,0.62
2017-03-28T09:51:51.559Z,0.17
2017-03-28T09:52:45.233Z,0.17
2017-03-28T09:53:39.361Z,0.34
2017-03-28T09:54:28.521Z,0.64
2017-03-28T09:55:29.932Z,0.17
2017-03-28T09:56:18.378Z,0.17
2017-03-28T09:57:06.876Z,0.17
2017-03-28T09:58:06.502Z,0.17
2017-03-28T09:59:01.221Z,0.17
2017-03-28T09:59:49.614Z,0.61
2017-03-28T10:00:44.647Z,0.61
2017-03-28T10:01:33.838Z,0.63
2017-03-28T10:02:27.843Z,0.17
2017-03-28T10:03:21.794Z,0.17
2017-03-28T10:04:09.976Z,0.17
2017-03-28T10:05:09.937Z,0.66
2017-03-28T10:06:04.690Z,0.67
2017-03-28T10:06:58.139Z,0.18
2017-03-28T10:07:47.328Z,0.61
2017-03-28T10:08:41.217Z,0.67
2017-03-28T10:09:36.325Z,0.66
2017-03-28T10:10:30.328Z,0.67
2017-03-28T10:11:18.403Z,0.68
2017-03-28T10:12:18.631Z,0.64
2017-03-28T10:13:12.602Z,0.66
2017-03-28T10:14:06.957Z,0.66
2017-03-28T10:14:54.666Z,0.66
2017-03-28T10:15:49.728Z,0.65
2017-03-28T10:16:43.805Z,0.66
2017-03-28T10:17:37.890Z,0.66
2017-03-28T10:18:31.958Z,0.66
2017-03-28T10:19:20.579Z,0.67
2017-03-28T10:20:09.134Z,0.65
2017-03-28T10:20:58.281Z,0.66
2017-03-28T10:21:53.231Z,0.65
2017-03-28T10:22:47.335Z,0.67
2017-03-28T10:23:42.703Z,0.68
2017-03-28T10:24:31.926Z,0.68
2017-03-28T10:25:26.584Z,0.68
2017-03-28T10:26:15.744Z,0.68
2017-03-28T10:27:09.680Z,0.68
2017-03-28T10:28:04.827Z,0.68
2017-03-28T10:28:58.938Z,0.17
2017-03-28T10:29:52.979Z,0.67
2017-03-28T10:30:42.009Z,0.68
2017-03-28T10:31:36.406Z,0.18
2017-03-28T10:32:25.290Z,0.67
2017-03-28T10:33:19.262Z,0.67
2017-03-28T10:34:14.377Z,0.66
2017-03-28T10:35:07.340Z,0.66
2017-03-28T10:35:56.369Z,0.66
2017-03-28T10:36:50.457Z,0.17
2017-03-28T10:37:50.591Z,0.65
2017-03-28T10:38:45.587Z,0.65
2017-03-28T10:39:40.344Z,0.65
2017-03-28T10:40:28.770Z,0.64
2017-03-28T10:41:23.802Z,0.64
2017-03-28T10:42:18.062Z,0.64
2017-03-28T10:43:07.035Z,0.64
2017-03-28T10:43:55.079Z,0.64
2017-03-28T10:44:44.900Z,0.50
2017-03-28T10:45:39.119Z,0.31
2017-03-28T10:46:33.209Z,0.65
2017-03-28T10:47:22.925Z,0.66
2017-03-28T10:48:16.312Z,0.66
2017-03-28T10:49:04.383Z,0.66
2017-03-28T10:49:59.467Z,0.66
2017-03-28T10:50:48.455Z,0.65
2017-03-28T10:51:48.519Z,0.65
2017-03-28T10:52:43.179Z,0.66
2017-03-28T10:53:36.649Z,0.67
2017-03-28T10:54:30.776Z,0.66
2017-03-28T10:55:24.960Z,0.20
2017-03-28T10:56:13.959Z,0.67
2017-03-28T10:57:01.927Z,0.67
2017-03-28T10:57:56.200Z,0.65
2017-03-28T10:58:45.265Z,0.66
2017-03-28T10:59:45.158Z,0.65
2017-03-28T11:00:39.533Z,0.17
2017-03-28T11:01:33.398Z,0.63
2017-03-28T11:02:22.333Z,0.57
2017-03-28T11:03:16.911Z,0.63
2017-03-28T11:04:10.446Z,0.64
2017-03-28T11:05:04.571Z,0.64
2017-03-28T11:05:59.798Z,0.65
2017-03-28T11:06:48.410Z,0.31
2017-03-28T11:07:41.824Z,0.65
2017-03-28T11:08:29.918Z,0.64
2017-03-28T11:09:24.878Z,0.64
2017-03-28T11:10:19.549Z,0.17
2017-03-28T11:11:08.169Z,0.66
2017-03-28T11:12:08.130Z,0.65
2017-03-28T11:13:08.370Z,0.66
2017-03-28T11:13:57.393Z,0.66
2017-03-28T11:14:46.459Z,0.66
2017-03-28T11:15:41.407Z,0.65
2017-03-28T11:16:42.575Z,0.19
2017-03-28T11:17:36.556Z,0.63
2017-03-28T11:18:24.590Z,0.64
2017-03-28T11:19:24.797Z,0.64
2017-03-28T11:20:18.825Z,0.62
2017-03-28T11:21:12.937Z,0.17
2017-03-28T11:22:06.987Z,0.64
2017-03-28T11:22:55.970Z,0.64
2017-03-28T11:23:44.123Z,0.65
2017-03-28T11:24:39.135Z,0.67
2017-03-28T11:25:28.328Z,0.67
2017-03-28T11:26:17.258Z,0.66
2017-03-28T11:27:06.647Z,0.65
2017-03-28T11:28:00.351Z,0.67
2017-03-28T11:29:00.383Z,0.68
2017-03-28T11:29:55.122Z,0.67
2017-03-28T11:30:49.149Z,0.66
2017-03-28T11:31:48.652Z,0.65
2017-03-28T11:32:42.701Z,0.63
2017-03-28T11:33:36.824Z,0.61
2017-03-28T11:34:31.106Z,0.62
2017-03-28T11:35:25.498Z,0.58
2017-03-28T11:36:14.111Z,0.63
2017-03-28T11:37:02.247Z,0.63
2017-03-28T11:37:51.104Z,0.65
2017-03-28T11:38:46.128Z,0.65
2017-03-28T11:39:41.921Z,0.66
2017-03-28T11:40:42.862Z,0.67
2017-03-28T11:41:42.392Z,0.65
2017-03-28T11:42:36.425Z,0.66
2017-03-28T11:43:24.555Z,0.66
2017-03-28T11:44:13.660Z,0.67
2017-03-28T11:45:01.777Z,0.66
2017-03-28T11:45:50.672Z,0.65
2017-03-28T11:46:39.838Z,0.65
2017-03-28T11:47:39.837Z,0.63
2017-03-28T11:48:33.999Z,0.65
2017-03-28T11:49:29.720Z,0.66
2017-03-28T11:50:18.105Z,0.64
2017-03-28T11:51:12.131Z,0.65
2017-03-28T11:52:01.243Z,0.17
2017-03-28T11:52:50.286Z,0.64
2017-03-28T11:53:44.502Z,0.64
2017-03-28T11:54:39.401Z,0.65
2017-03-28T11:55:34.783Z,0.65
2017-03-28T11:56:30.171Z,0.65
2017-03-28T11:57:23.573Z,0.65
2017-03-28T11:58:18.704Z,0.64
2017-03-28T11:59:13.708Z,0.64
2017-03-28T12:00:13.875Z,0.63
2017-03-28T12:01:02.241Z,0.63
2017-03-28T12:01:55.978Z,0.63
2017-03-28T12:02:49.880Z,0.62
2017-03-28T12:03:50.030Z,0.64
2017-03-28T12:04:50.145Z,0.64
2017-03-28T12:05:44.129Z,0.64
2017-03-28T12:06:38.311Z,0.63
2017-03-28T12:07:33.079Z,0.64
2017-03-28T12:08:26.534Z,0.63
2017-03-28T12:09:14.417Z,0.62
2017-03-28T12:10:08.495Z,0.62
2017-03-28T12:11:03.919Z,0.63
2017-03-28T12:12:05.253Z,0.63
2017-03-28T12:12:52.742Z,0.62
2017-03-28T12:13:46.947Z,0.63
2017-03-28T12:14:40.743Z,0.62
2017-03-28T12:15:34.923Z,0.61
2017-03-28T12:16:34.850Z,0.61
2017-03-28T12:17:29.061Z,0.62
2017-03-28T12:18:24.007Z,0.62
2017-03-28T12:19:18.293Z,0.62
2017-03-28T12:20:07.232Z,0.63
2017-03-28T12:21:01.263Z,0.63
2017-03-28T12:21:55.228Z,0.63